This is the latest recevied weather packets stored in our database for station/object AC4AG. If no packets are shown the sender has not sent any weather packets the latest 1 day(s).
| Time | Temp. | Humidity | Pressure | Rain* | Wind** | Luminosity | Snow |
|---|---|---|---|---|---|---|---|
| 1778038238 | 15° C | 85% | 1008.4 hPa | 0 mm | - | 0 W/m² | - |
| 1778037936 | 15° C | 86% | 1008.7 hPa | 0 mm | - | 0 W/m² | - |
| 1778037632 | 15° C | 86% | 1008.6 hPa | 0 mm | - | 0 W/m² | - |
| 1778037330 | 15° C | 86% | 1008.4 hPa | 0 mm | - | 0 W/m² | - |
| 1778037027 | 15° C | 86% | 1008.5 hPa | 0 mm | - | 0 W/m² | - |
| 1778036119 | 14.44° C | 91% | 1008.8 hPa | 0 mm | - | 0 W/m² | - |
| 1778035815 | 14.44° C | 91% | 1008.9 hPa | 0 mm | - | 0 W/m² | - |
| 1778035512 | 13.89° C | 92% | 1008.9 hPa | 0 mm | - | 0 W/m² | - |
| 1778035208 | 13.89° C | 95% | 1009.1 hPa | 1.78 mm | - | 0 W/m² | - |
| 1778034602 | 13.89° C | 94% | 1009.1 hPa | 8.89 mm | - | 0 W/m² | - |
| 1778033997 | 14.44° C | 90% | 1009.8 hPa | 1.78 mm | - | 0 W/m² | - |
| 1778033694 | 14.44° C | 90% | 1009.3 hPa | 0 mm | - | 0 W/m² | - |
| 1778033391 | 14.44° C | 91% | 1008.8 hPa | 1.27 mm | - | 0 W/m² | - |
| 1778033089 | 14.44° C | 87% | 1008.2 hPa | 1.27 mm | - | 0 W/m² | - |
| 1778032786 | 15° C | 84% | 1008.5 hPa | 1.78 mm | - | 0 W/m² | - |
| 1778032180 | 16.67° C | 77% | 1009.6 hPa | 3.05 mm | - | 0 W/m² | - |
| 1778031877 | 17.78° C | 65% | 1009.4 hPa | 0 mm | - | 0 W/m² | - |
| 1778031573 | 20° C | 54% | 1008.8 hPa | 0 mm | - | 0 W/m² | - |
| 1778031272 | 20° C | 54% | 1008.8 hPa | 0 mm | - | 0 W/m² | - |
| 1778030664 | 20.56° C | 51% | 1008 hPa | 0 mm | - | 0 W/m² | - |
| 1778030361 | 20.56° C | 51% | 1008 hPa | 0 mm | - | 0 W/m² | - |
| 1778029755 | 20.56° C | 50% | 1007.7 hPa | 0 mm | - | 0 W/m² | - |
| 1778029454 | 20.56° C | 50% | 1007.8 hPa | 0 mm | - | 0 W/m² | - |
| 1778029150 | 20.56° C | 50% | 1008 hPa | 0 mm | - | 0 W/m² | - |
| 1778028848 | 20.56° C | 49% | 1008 hPa | 0 mm | - | 0 W/m² | - |
* Rain latest hour (hover to see other rain measurements)
** Current wind speed in m/s (hover to see current wind gust speed)